Time;durP1;ratioP1;P1;durP2;ratioP2;P2;SDS_P1;SDS_P2;PMS_P1;PMS_P2;Temp;Humidity;BMP_temperature;BMP_pressure;BME280_temperature;BME280_humidity;BME280_pressure;Samples;Min_cycle;Max_cycle;Signal;HPM_P1;HPM_P2
2022/03/26 00:01:53;;;;;;;53.83;24.95;;;9.40;91.90;;;;;;5099094;28;20021;-70
2022/03/26 00:04:18;;;;;;;52.55;24.40;;;9.40;92.00;;;;;;5083541;28;20394;-69
2022/03/26 00:06:44;;;;;;;50.75;25.27;;;9.40;92.30;;;;;;5083594;28;20016;-70
2022/03/26 00:09:10;;;;;;;55.20;25.60;;;9.40;92.60;;;;;;5065079;28;20024;-70
2022/03/26 00:11:35;;;;;;;57.55;25.30;;;9.30;92.40;;;;;;5082221;28;20016;-70
2022/03/26 00:14:01;;;;;;;55.05;25.42;;;9.30;92.50;;;;;;5083675;28;20365;-71
2022/03/26 00:16:27;;;;;;;51.25;25.08;;;9.30;92.50;;;;;;5082092;28;20380;-71
2022/03/26 00:18:53;;;;;;;57.53;25.45;;;9.20;92.60;;;;;;5082266;28;20201;-70
2022/03/26 00:21:19;;;;;;;58.35;24.20;;;9.20;92.70;;;;;;5082312;28;20383;-72
2022/03/26 00:23:44;;;;;;;52.70;24.98;;;9.20;92.90;;;;;;5083235;28;20307;-71
2022/03/26 00:26:11;;;;;;;55.50;25.85;;;9.20;92.90;;;;;;5083444;28;20048;-72
2022/03/26 00:28:38;;;;;;;50.30;25.52;;;9.20;93.00;;;;;;5082509;28;20020;-70
2022/03/26 00:31:05;;;;;;;54.63;27.40;;;9.10;93.00;;;;;;5082299;28;20024;-70
2022/03/26 00:33:32;;;;;;;60.20;25.88;;;9.00;93.20;;;;;;5081480;28;20212;-70
2022/03/26 00:35:58;;;;;;;60.97;26.38;;;9.00;93.30;;;;;;5082022;28;20324;-70
2022/03/26 00:38:24;;;;;;;58.88;25.45;;;9.00;93.30;;;;;;5083374;28;20032;-71
2022/03/26 00:40:50;;;;;;;69.75;27.15;;;9.00;93.40;;;;;;5087206;28;20032;-71
2022/03/26 00:43:16;;;;;;;54.22;25.65;;;9.00;93.50;;;;;;5086963;28;20188;-72
2022/03/26 00:45:43;;;;;;;53.38;26.35;;;9.00;93.50;;;;;;5069055;28;20016;-71
2022/03/26 00:48:09;;;;;;;62.45;26.73;;;9.00;93.50;;;;;;5087134;28;20024;-71
2022/03/26 00:50:35;;;;;;;55.83;26.60;;;8.90;93.50;;;;;;5086996;28;20028;-70
2022/03/26 00:53:01;;;;;;;57.80;27.20;;;8.90;93.60;;;;;;5086417;28;20062;-72
2022/03/26 00:55:27;;;;;;;55.15;26.52;;;8.90;93.70;;;;;;5087011;28;20337;-73
2022/03/26 00:57:52;;;;;;;53.03;26.15;;;8.80;93.70;;;;;;5086976;28;20032;-69
2022/03/26 01:00:18;;;;;;;54.83;26.55;;;8.80;93.80;;;;;;5085653;28;20028;-71
2022/03/26 01:02:44;;;;;;;53.53;26.35;;;8.70;94.00;;;;;;5085388;28;20024;-71
2022/03/26 01:05:10;;;;;;;51.75;27.17;;;8.70;94.10;;;;;;5086568;28;20200;-70
2022/03/26 01:07:36;;;;;;;58.95;26.35;;;8.70;94.50;;;;;;5085327;28;20325;-69
2022/03/26 01:10:03;;;;;;;61.35;27.33;;;8.60;94.60;;;;;;5086793;28;20048;-69
2022/03/26 01:12:28;;;;;;;66.78;27.70;;;8.60;94.80;;;;;;5086413;28;20259;-72
2022/03/26 01:14:54;;;;;;;59.33;27.35;;;8.60;94.90;;;;;;5086596;28;20028;-70
2022/03/26 01:17:20;;;;;;;58.55;27.20;;;8.60;95.10;;;;;;5085144;28;20028;-72
2022/03/26 01:19:46;;;;;;;61.60;27.90;;;8.60;95.70;;;;;;5102185;28;20200;-71
2022/03/26 01:22:12;;;;;;;56.40;28.15;;;8.60;95.80;;;;;;5086386;28;20025;-72
2022/03/26 01:24:38;;;;;;;67.90;27.85;;;8.70;95.80;;;;;;5085239;28;20029;-72
2022/03/26 01:27:04;;;;;;;61.63;27.65;;;8.70;95.70;;;;;;5086138;28;20198;-70
2022/03/26 01:29:30;;;;;;;56.50;27.05;;;8.70;95.70;;;;;;5086398;28;20028;-72
2022/03/26 01:31:56;;;;;;;61.47;29.15;;;8.70;95.70;;;;;;5085141;28;20267;-72
2022/03/26 01:34:25;;;;;;;60.25;28.58;;;8.70;95.70;;;;;;5101628;28;20032;-72
2022/03/26 01:36:51;;;;;;;59.20;27.83;;;8.60;95.70;;;;;;5086279;28;20032;-72
2022/03/26 01:39:18;;;;;;;59.70;27.60;;;8.60;95.90;;;;;;5085763;28;20208;-71
2022/03/26 01:41:44;;;;;;;58.72;27.33;;;8.70;95.90;;;;;;5084694;28;20423;-72
2022/03/26 01:44:14;;;;;;;55.85;28.08;;;8.60;95.80;;;;;;5084941;28;20028;-70
2022/03/26 01:46:49;;;;;;;64.07;29.10;;;8.60;95.80;;;;;;5085669;28;20062;-70
2022/03/26 01:49:15;;;;;;;58.55;28.40;;;8.50;95.80;;;;;;5084067;28;20025;-72
2022/03/26 01:51:41;;;;;;;59.20;27.20;;;8.50;96.00;;;;;;5084343;28;20025;-70
2022/03/26 01:54:08;;;;;;;65.20;29.52;;;8.40;96.00;;;;;;5084508;28;20216;-72
2022/03/26 01:56:34;;;;;;;55.75;28.13;;;8.40;96.10;;;;;;5084606;28;20118;-72
2022/03/26 01:59:00;;;;;;;64.15;29.45;;;8.30;96.10;;;;;;5084577;28;20126;-71
2022/03/26 02:01:26;;;;;;;63.40;28.48;;;8.30;96.40;;;;;;5084664;28;20025;-73
2022/03/26 02:03:51;;;;;;;59.63;28.30;;;8.20;96.20;;;;;;5085029;28;20016;-72
2022/03/26 02:06:19;;;;;;;54.22;27.60;;;8.20;96.30;;;;;;5085399;28;20028;-73
2022/03/26 02:08:45;;;;;;;64.65;27.30;;;8.10;96.60;;;;;;5085159;28;20024;-71
2022/03/26 02:11:11;;;;;;;66.05;29.08;;;8.10;96.80;;;;;;5101088;28;20025;-72
2022/03/26 02:13:54;;;;;;;59.38;27.90;;;8.00;97.10;;;;;;5083955;28;20020;-71
2022/03/26 02:16:21;;;;;;;65.38;28.17;;;8.00;97.30;;;;;;5084411;28;20037;-72
2022/03/26 02:18:48;;;;;;;63.85;30.00;;;8.00;97.30;;;;;;5082300;28;20057;-72
2022/03/26 02:21:14;;;;;;;62.83;28.83;;;8.00;97.20;;;;;;5085273;28;20024;-72
2022/03/26 02:23:41;;;;;;;56.90;28.15;;;8.00;97.20;;;;;;5085187;28;20021;-72
2022/03/26 02:26:06;;;;;;;58.88;27.50;;;7.90;97.20;;;;;;5085009;28;20319;-71
2022/03/26 02:28:33;;;;;;;62.15;28.33;;;7.80;97.10;;;;;;5085330;28;20028;-71
2022/03/26 02:30:59;;;;;;;56.13;26.60;;;7.80;97.10;;;;;;5083983;28;20307;-74
2022/03/26 02:33:25;;;;;;;55.95;27.70;;;7.80;97.10;;;;;;5083739;28;20061;-72
2022/03/26 02:35:51;;;;;;;63.22;28.15;;;7.70;97.10;;;;;;5068888;28;20032;-71
2022/03/26 02:38:16;;;;;;;67.78;27.17;;;7.70;97.20;;;;;;5064729;28;20028;-74
2022/03/26 02:40:42;;;;;;;59.55;26.73;;;7.60;97.10;;;;;;5064916;28;20087;-71
2022/03/26 02:43:09;;;;;;;58.78;27.42;;;7.60;97.20;;;;;;5080179;28;20020;-70
2022/03/26 02:45:34;;;;;;;63.80;27.35;;;7.60;97.30;;;;;;5063555;28;20139;-71
2022/03/26 02:48:00;;;;;;;59.92;27.33;;;7.50;97.30;;;;;;5080241;28;20017;-71
2022/03/26 02:50:26;;;;;;;56.92;27.00;;;7.50;97.30;;;;;;5064938;28;20027;-70
2022/03/26 02:52:51;;;;;;;58.05;27.85;;;7.40;97.40;;;;;;5079827;28;20312;-73
2022/03/26 02:55:17;;;;;;;65.60;27.85;;;7.40;97.50;;;;;;5064442;28;20033;-69
2022/03/26 02:57:46;;;;;;;58.58;28.58;;;7.40;97.50;;;;;;5064307;28;20268;-69
2022/03/26 03:00:14;;;;;;;52.78;27.77;;;7.30;97.60;;;;;;5063565;28;20053;-69
2022/03/26 03:02:42;;;;;;;62.15;27.80;;;7.30;97.60;;;;;;5046091;28;20028;-71
2022/03/26 03:05:08;;;;;;;66.72;28.60;;;7.30;97.70;;;;;;5064253;28;20036;-71
2022/03/26 03:07:34;;;;;;;66.20;27.70;;;7.30;97.80;;;;;;5063044;28;20243;-73
2022/03/26 03:10:00;;;;;;;61.83;29.00;;;7.30;97.80;;;;;;5064548;28;20020;-69
2022/03/26 03:12:26;;;;;;;61.13;30.40;;;7.20;97.80;;;;;;5063898;28;20320;-70
2022/03/26 03:14:52;;;;;;;67.63;29.73;;;7.20;97.90;;;;;;5062969;28;20367;-70
2022/03/26 03:17:18;;;;;;;62.33;27.50;;;7.10;98.20;;;;;;5079728;28;20036;-71
2022/03/26 03:19:43;;;;;;;58.92;28.90;;;7.20;98.00;;;;;;5062288;28;20044;-70
2022/03/26 03:22:09;;;;;;;63.67;28.05;;;7.20;98.00;;;;;;5063922;28;20057;-72
2022/03/26 03:24:35;;;;;;;76.28;28.05;;;7.20;98.10;;;;;;5063008;28;20051;-69
2022/03/26 03:27:01;;;;;;;72.95;27.42;;;7.30;98.20;;;;;;5064181;28;20047;-70
2022/03/26 03:29:26;;;;;;;65.50;26.77;;;7.30;98.20;;;;;;5079409;28;20021;-70
2022/03/26 03:31:52;;;;;;;67.40;29.45;;;7.30;98.10;;;;;;5062805;28;20017;-69
2022/03/26 03:34:18;;;;;;;68.82;28.98;;;7.10;98.00;;;;;;5079311;28;20021;-71
2022/03/26 03:36:44;;;;;;;73.18;29.52;;;7.10;98.10;;;;;;5062761;28;20033;-71
2022/03/26 03:39:09;;;;;;;64.18;28.55;;;7.00;98.50;;;;;;5063372;28;20029;-69
2022/03/26 03:41:35;;;;;;;69.03;28.83;;;7.00;98.50;;;;;;5063822;28;20267;-70
2022/03/26 03:44:02;;;;;;;63.05;28.83;;;7.10;98.80;;;;;;5063709;28;20062;-71
2022/03/26 03:46:30;;;;;;;61.47;27.80;;;7.00;98.50;;;;;;5062459;28;20021;-70
2022/03/26 03:48:56;;;;;;;63.63;29.65;;;7.00;98.50;;;;;;5079113;28;20027;-71
2022/03/26 03:51:21;;;;;;;66.80;29.60;;;6.90;98.50;;;;;;5063751;28;20056;-70
2022/03/26 03:53:47;;;;;;;71.65;29.20;;;6.90;98.50;;;;;;5045689;28;20061;-70
2022/03/26 03:56:13;;;;;;;67.80;29.25;;;7.00;98.70;;;;;;5062505;28;20086;-70
2022/03/26 03:58:38;;;;;;;65.57;28.85;;;7.00;98.80;;;;;;5062463;28;20071;-70
2022/03/26 04:01:04;;;;;;;67.22;29.35;;;7.00;98.70;;;;;;5062532;28;20031;-71
2022/03/26 04:03:30;;;;;;;72.15;29.77;;;7.00;98.60;;;;;;5063382;28;20250;-70
2022/03/26 04:05:56;;;;;;;65.55;28.13;;;6.90;98.60;;;;;;5062187;28;20029;-70
2022/03/26 04:08:21;;;;;;;66.30;28.95;;;6.90;98.60;;;;;;5063392;28;20040;-69
2022/03/26 04:10:47;;;;;;;65.10;29.13;;;6.90;98.60;;;;;;5063547;28;20265;-69
2022/03/26 04:13:13;;;;;;;68.25;29.83;;;6.90;98.60;;;;;;5066208;28;20017;-70
2022/03/26 04:15:39;;;;;;;75.55;31.63;;;6.90;98.70;;;;;;5068688;28;20028;-71
2022/03/26 04:18:06;;;;;;;71.03;30.27;;;6.90;98.80;;;;;;5070041;28;20017;-69
2022/03/26 04:20:35;;;;;;;73.10;29.98;;;7.00;99.00;;;;;;5083491;28;20033;-71
2022/03/26 04:23:01;;;;;;;71.57;29.15;;;7.00;99.10;;;;;;5085648;28;20017;-70
2022/03/26 04:25:27;;;;;;;74.28;30.52;;;7.00;99.10;;;;;;5070015;28;20028;-71
2022/03/26 04:27:52;;;;;;;77.35;32.10;;;7.10;99.10;;;;;;5069931;28;20025;-72
2022/03/26 04:30:18;;;;;;;78.22;30.45;;;7.10;99.00;;;;;;5069996;28;20027;-71
2022/03/26 04:32:44;;;;;;;75.53;30.48;;;7.20;98.90;;;;;;5068608;28;20323;-70
2022/03/26 04:35:10;;;;;;;69.78;30.67;;;7.20;98.80;;;;;;5068748;28;20021;-72
2022/03/26 04:37:37;;;;;;;77.82;30.80;;;7.20;98.70;;;;;;5069459;28;20032;-71
2022/03/26 04:40:04;;;;;;;79.25;32.30;;;7.20;98.60;;;;;;5085237;28;20028;-70
2022/03/26 04:42:30;;;;;;;71.18;28.85;;;7.20;98.60;;;;;;5069817;28;20062;-72
2022/03/26 04:44:56;;;;;;;76.78;29.65;;;7.20;98.60;;;;;;5069749;28;20028;-70
2022/03/26 04:47:21;;;;;;;80.00;31.42;;;7.30;98.60;;;;;;5082188;28;20040;-70
2022/03/26 04:49:47;;;;;;;74.35;31.63;;;7.20;98.40;;;;;;5090235;28;20032;-69
2022/03/26 04:52:13;;;;;;;70.72;28.35;;;7.20;98.40;;;;;;5089897;28;20020;-71
2022/03/26 04:54:39;;;;;;;79.22;30.75;;;7.20;98.30;;;;;;5105637;28;20056;-71
2022/03/26 04:57:05;;;;;;;75.15;30.60;;;7.20;98.30;;;;;;5088443;28;20020;-71
2022/03/26 04:59:31;;;;;;;88.47;33.83;;;7.10;98.40;;;;;;5089718;28;20227;-73
2022/03/26 05:01:57;;;;;;;78.93;29.58;;;7.10;98.40;;;;;;5105329;28;20016;-73
2022/03/26 05:04:23;;;;;;;76.13;31.75;;;7.10;98.50;;;;;;5089850;28;20024;-72
2022/03/26 05:06:48;;;;;;;72.78;30.80;;;7.10;98.40;;;;;;5105303;28;20044;-71
2022/03/26 05:09:14;;;;;;;79.65;30.70;;;7.00;98.60;;;;;;5105108;28;20248;-72
2022/03/26 05:11:40;;;;;;;73.82;30.40;;;7.10;98.30;;;;;;5105524;28;20058;-70
2022/03/26 05:14:06;;;;;;;71.40;30.40;;;7.10;98.20;;;;;;5089715;28;20016;-71
2022/03/26 05:16:32;;;;;;;76.57;29.67;;;7.00;98.00;;;;;;5089303;28;20350;-70
2022/03/26 05:18:57;;;;;;;78.65;29.75;;;7.00;98.00;;;;;;5105172;28;20039;-71
2022/03/26 05:21:23;;;;;;;76.68;30.58;;;7.00;98.00;;;;;;5088080;28;20109;-70
2022/03/26 05:23:50;;;;;;;77.15;29.45;;;7.00;98.00;;;;;;5089226;28;20021;-74
2022/03/26 05:26:15;;;;;;;78.80;31.08;;;7.00;98.00;;;;;;5102139;28;20023;-70
2022/03/26 05:28:41;;;;;;;71.60;28.85;;;6.90;98.00;;;;;;5085020;28;20024;-70
2022/03/26 05:31:07;;;;;;;79.72;30.73;;;6.90;98.10;;;;;;5086115;28;20026;-71
2022/03/26 05:33:32;;;;;;;79.57;30.80;;;6.90;98.10;;;;;;5101912;28;20256;-69
2022/03/26 05:35:58;;;;;;;75.75;30.50;;;7.00;98.00;;;;;;5086227;28;20024;-71
2022/03/26 05:38:24;;;;;;;73.07;29.58;;;7.00;98.00;;;;;;5084616;28;20099;-70
2022/03/26 05:40:50;;;;;;;75.65;30.38;;;6.90;97.90;;;;;;5084681;28;20032;-69
2022/03/26 05:43:16;;;;;;;87.82;31.50;;;6.80;97.90;;;;;;5086128;28;20043;-69
2022/03/26 05:45:41;;;;;;;91.68;30.70;;;6.80;98.10;;;;;;5084628;28;20021;-71
2022/03/26 05:48:08;;;;;;;82.63;29.80;;;6.90;98.10;;;;;;5085774;28;20055;-69
2022/03/26 05:50:34;;;;;;;83.75;29.50;;;6.80;98.10;;;;;;5084909;28;20017;-69
2022/03/26 05:53:01;;;;;;;82.05;30.13;;;6.90;98.10;;;;;;5084334;28;20120;-70
2022/03/26 05:55:27;;;;;;;75.78;29.77;;;6.90;98.00;;;;;;5101292;28;20042;-70
2022/03/26 05:57:53;;;;;;;73.40;30.08;;;6.80;98.20;;;;;;5085594;28;20020;-71
2022/03/26 06:00:18;;;;;;;74.35;28.52;;;6.80;97.90;;;;;;5101375;28;20036;-70
2022/03/26 06:02:44;;;;;;;72.38;29.13;;;6.80;98.00;;;;;;5084527;28;20299;-70
2022/03/26 06:05:10;;;;;;;77.95;29.95;;;6.80;97.90;;;;;;5085533;28;20013;-70
2022/03/26 06:07:36;;;;;;;82.50;30.63;;;6.80;97.90;;;;;;5085055;28;20029;-70
2022/03/26 06:10:03;;;;;;;85.63;30.45;;;6.70;97.90;;;;;;5068140;28;20016;-70
2022/03/26 06:12:29;;;;;;;78.32;29.58;;;6.70;98.00;;;;;;5085473;28;20020;-70
2022/03/26 06:14:54;;;;;;;74.95;29.63;;;6.70;98.10;;;;;;5085576;28;20084;-71
2022/03/26 06:17:22;;;;;;;70.88;29.02;;;6.70;98.20;;;;;;5084850;28;20032;-71
2022/03/26 06:19:47;;;;;;;81.47;31.05;;;6.70;98.30;;;;;;5085697;28;20189;-71
2022/03/26 06:22:13;;;;;;;71.03;29.75;;;6.80;98.40;;;;;;5083454;28;20031;-71
2022/03/26 06:24:39;;;;;;;75.00;30.05;;;6.70;98.40;;;;;;5085073;28;20035;-73
2022/03/26 06:27:06;;;;;;;76.72;32.72;;;6.80;98.40;;;;;;5085117;28;20017;-71
2022/03/26 06:29:33;;;;;;;83.13;30.88;;;6.70;98.40;;;;;;5085065;28;20024;-70
2022/03/26 06:32:01;;;;;;;79.43;31.35;;;6.70;98.50;;;;;;5084998;28;20033;-72
2022/03/26 06:34:28;;;;;;;84.25;30.38;;;6.70;98.50;;;;;;5080754;28;20019;-70
2022/03/26 06:36:55;;;;;;;71.50;30.02;;;6.80;98.60;;;;;;5064586;28;20024;-71
2022/03/26 06:39:20;;;;;;;71.40;30.77;;;6.90;98.60;;;;;;5064492;28;20048;-70
2022/03/26 06:41:46;;;;;;;72.63;30.23;;;6.90;98.50;;;;;;5063727;28;20109;-71
2022/03/26 06:44:12;;;;;;;77.47;31.95;;;6.90;98.50;;;;;;5064907;28;20044;-71
2022/03/26 06:46:39;;;;;;;79.65;32.17;;;6.90;98.50;;;;;;5071209;28;20016;-71
2022/03/26 06:49:08;;;;;;;78.20;30.75;;;7.00;98.70;;;;;;5100406;28;20032;-69
2022/03/26 06:51:34;;;;;;;72.80;30.98;;;7.00;98.70;;;;;;5084768;28;20025;-72
2022/03/26 06:54:00;;;;;;;73.35;31.60;;;7.10;98.70;;;;;;5084746;28;20048;-71
2022/03/26 06:56:26;;;;;;;75.72;31.67;;;7.10;98.70;;;;;;5100521;28;20024;-70
2022/03/26 06:58:52;;;;;;;71.65;30.15;;;7.10;98.60;;;;;;5100276;28;20356;-70
2022/03/26 07:01:18;;;;;;;73.95;30.67;;;7.20;98.60;;;;;;5100171;28;20032;-70
2022/03/26 07:03:44;;;;;;;75.75;30.48;;;7.30;98.40;;;;;;5084769;28;20181;-71
2022/03/26 07:06:09;;;;;;;80.38;31.88;;;7.40;98.30;;;;;;5084517;28;20083;-69
2022/03/26 07:08:35;;;;;;;66.22;30.45;;;7.40;98.20;;;;;;5082861;28;20020;-71
2022/03/26 07:11:02;;;;;;;71.88;30.60;;;7.40;98.20;;;;;;5084432;28;20016;-70
2022/03/26 07:13:27;;;;;;;75.53;31.90;;;7.50;98.20;;;;;;5099993;28;20023;-70
2022/03/26 07:15:53;;;;;;;70.35;30.55;;;7.60;98.00;;;;;;5083014;28;20024;-70
2022/03/26 07:18:19;;;;;;;72.60;31.63;;;7.70;97.80;;;;;;5084288;28;20255;-71
2022/03/26 07:20:45;;;;;;;76.13;31.15;;;7.70;97.70;;;;;;5099467;28;20330;-70
2022/03/26 07:23:11;;;;;;;75.00;31.90;;;7.80;97.60;;;;;;5097900;28;20009;-71
2022/03/26 07:25:36;;;;;;;76.45;31.80;;;7.90;97.50;;;;;;5083793;28;20082;-71
2022/03/26 07:28:03;;;;;;;71.45;30.60;;;8.00;97.40;;;;;;5100065;28;20358;-72
2022/03/26 07:30:29;;;;;;;65.40;29.75;;;8.10;97.20;;;;;;5099340;28;20012;-71
2022/03/26 07:32:54;;;;;;;67.00;28.88;;;8.20;96.90;;;;;;5083971;28;20074;-70
2022/03/26 07:35:20;;;;;;;69.70;28.73;;;8.20;96.80;;;;;;5079281;28;20036;-71
2022/03/26 07:37:46;;;;;;;74.38;29.25;;;8.20;96.80;;;;;;5079216;28;20021;-70
2022/03/26 07:40:13;;;;;;;62.40;27.13;;;8.30;96.70;;;;;;5062565;28;20036;-71
2022/03/26 07:42:39;;;;;;;70.05;28.45;;;8.50;95.50;;;;;;5079416;28;20021;-71
2022/03/26 07:45:05;;;;;;;139.88;66.53;;;8.60;95.50;;;;;;5062551;28;20255;-72
2022/03/26 07:47:34;;;;;;;91.13;43.70;;;8.60;95.20;;;;;;5062914;28;20028;-71
2022/03/26 07:49:59;;;;;;;81.57;37.80;;;8.80;94.70;;;;;;5063623;28;20033;-72
2022/03/26 07:52:25;;;;;;;88.38;39.17;;;8.80;94.30;;;;;;5045815;28;20244;-72
2022/03/26 07:54:50;;;;;;;68.65;31.45;;;8.90;94.30;;;;;;5079335;28;20044;-72
2022/03/26 07:57:16;;;;;;;73.22;30.35;;;8.90;94.00;;;;;;5063633;28;20020;-73
2022/03/26 07:59:42;;;;;;;73.15;30.65;;;8.90;94.20;;;;;;5045798;28;20035;-71
2022/03/26 08:02:08;;;;;;;58.83;24.42;;;9.10;94.00;;;;;;5063520;28;20181;-69
2022/03/26 08:04:35;;;;;;;55.08;23.40;;;9.20;93.70;;;;;;5079133;28;20049;-70
2022/03/26 08:07:00;;;;;;;51.20;21.35;;;9.30;93.20;;;;;;5063423;28;20192;-71
2022/03/26 08:09:27;;;;;;;48.33;21.75;;;9.40;93.00;;;;;;5062110;28;20088;-71
2022/03/26 08:11:52;;;;;;;52.97;21.67;;;9.50;92.90;;;;;;5062369;28;20052;-70
2022/03/26 08:14:18;;;;;;;46.20;20.05;;;9.60;92.30;;;;;;5063506;28;20021;-71
2022/03/26 08:16:44;;;;;;;44.58;21.05;;;9.70;92.30;;;;;;5063446;28;20021;-71
2022/03/26 08:19:09;;;;;;;51.70;21.55;;;9.80;91.80;;;;;;5045527;28;20296;-71
2022/03/26 08:21:35;;;;;;;47.35;20.17;;;9.90;91.80;;;;;;5045414;28;20021;-72
2022/03/26 08:24:02;;;;;;;53.22;21.42;;;9.90;91.50;;;;;;5061723;28;20025;-72
2022/03/26 08:26:29;;;;;;;47.70;20.42;;;10.00;91.70;;;;;;5063464;28;20045;-72
2022/03/26 08:28:58;;;;;;;54.50;20.77;;;10.10;91.30;;;;;;5045705;28;20029;-72
2022/03/26 08:31:26;;;;;;;50.25;20.05;;;10.20;91.20;;;;;;5078539;28;20029;-76
2022/03/26 08:33:53;;;;;;;46.97;19.70;;;10.30;91.00;;;;;;5062144;28;20028;-73
2022/03/26 08:36:19;;;;;;;43.10;18.13;;;10.40;90.90;;;;;;5082196;28;20013;-72
2022/03/26 08:38:46;;;;;;;46.88;19.30;;;10.50;90.40;;;;;;5083041;28;20088;-70
2022/03/26 08:41:14;;;;;;;46.83;19.85;;;10.60;90.20;;;;;;5081856;28;20034;-72
2022/03/26 08:43:40;;;;;;;43.38;18.02;;;10.60;90.00;;;;;;5082159;28;20024;-73
2022/03/26 08:46:06;;;;;;;44.20;18.38;;;10.70;89.80;;;;;;5082830;28;20054;-75
2022/03/26 08:48:32;;;;;;;38.33;16.58;;;10.80;89.30;;;;;;5083273;28;20095;-73
2022/03/26 08:50:58;;;;;;;43.03;18.50;;;10.80;88.80;;;;;;5083038;28;20032;-72
2022/03/26 08:53:24;;;;;;;42.47;18.23;;;10.90;88.40;;;;;;5064601;28;20286;-72
2022/03/26 08:55:51;;;;;;;37.92;17.35;;;10.90;88.20;;;;;;5065339;28;20103;-73
2022/03/26 08:58:17;;;;;;;43.05;17.55;;;11.00;87.80;;;;;;5083144;28;20333;-70
2022/03/26 09:00:47;;;;;;;37.33;17.15;;;11.10;87.80;;;;;;5101839;28;20025;-70
2022/03/26 09:03:14;;;;;;;40.08;16.77;;;11.20;86.70;;;;;;5086530;28;20315;-72
2022/03/26 09:05:40;;;;;;;41.47;17.58;;;11.30;86.60;;;;;;5085206;28;20215;-72
2022/03/26 09:08:05;;;;;;;41.70;16.88;;;11.40;86.30;;;;;;5085173;28;20020;-73
2022/03/26 09:10:32;;;;;;;44.55;16.20;;;11.50;86.20;;;;;;5102208;28;20071;-71
2022/03/26 09:12:57;;;;;;;40.28;17.35;;;11.60;85.30;;;;;;5085521;28;20051;-71
2022/03/26 09:15:23;;;;;;;38.63;15.98;;;11.70;85.00;;;;;;5085280;28;20067;-72
2022/03/26 09:17:49;;;;;;;40.60;17.08;;;11.80;84.60;;;;;;5085498;28;20017;-72
2022/03/26 09:20:14;;;;;;;40.70;16.95;;;11.90;84.40;;;;;;5085364;28;20032;-73
2022/03/26 09:22:40;;;;;;;39.67;16.27;;;11.90;84.20;;;;;;5085153;28;20304;-73
2022/03/26 09:25:06;;;;;;;33.25;15.98;;;12.00;84.00;;;;;;5100726;28;20024;-72
2022/03/26 09:27:32;;;;;;;34.85;15.05;;;12.00;84.00;;;;;;5086557;28;20062;-71
2022/03/26 09:29:58;;;;;;;37.35;15.02;;;12.10;83.40;;;;;;5085203;28;20020;-71
2022/03/26 09:32:23;;;;;;;40.25;15.05;;;12.20;82.40;;;;;;5086075;28;20024;-72
2022/03/26 09:34:49;;;;;;;31.02;13.35;;;12.30;82.40;;;;;;5078496;28;20013;-71
2022/03/26 09:37:16;;;;;;;31.27;12.77;;;12.40;80.90;;;;;;5064657;28;20029;-70
2022/03/26 09:39:42;;;;;;;33.80;13.85;;;12.50;81.00;;;;;;5066096;28;20312;-71
2022/03/26 09:42:09;;;;;;;29.20;12.70;;;12.60;81.30;;;;;;5065872;28;20036;-71
2022/03/26 09:44:35;;;;;;;30.67;13.85;;;12.70;80.40;;;;;;5081525;28;20212;-71
2022/03/26 09:47:03;;;;;;;29.35;13.30;;;12.70;80.40;;;;;;5081671;28;20025;-71
2022/03/26 09:49:29;;;;;;;33.10;14.00;;;12.70;80.30;;;;;;5065560;28;20052;-73
2022/03/26 09:51:56;;;;;;;28.95;13.10;;;12.80;80.20;;;;;;5065788;28;20033;-71
2022/03/26 09:54:22;;;;;;;28.17;14.13;;;12.80;80.20;;;;;;5065957;28;20048;-73
2022/03/26 09:56:48;;;;;;;32.17;13.82;;;12.90;80.50;;;;;;5065863;28;20017;-74
2022/03/26 09:59:14;;;;;;;31.98;13.43;;;12.90;80.70;;;;;;5065769;28;20024;-70
2022/03/26 10:01:40;;;;;;;29.88;12.70;;;13.10;80.50;;;;;;5065476;28;20029;-70
2022/03/26 10:04:12;;;;;;;28.55;13.45;;;13.10;78.90;;;;;;5081339;28;20051;-74
2022/03/26 10:06:45;;;;;;;;;;;13.10;79.30;;;;;;5064676;28;20036;-71
2022/03/26 10:09:11;;;;;;;30.42;12.65;;;13.30;78.50;;;;;;5064132;28;19907;-71
2022/03/26 10:11:36;;;;;;;30.15;12.52;;;13.40;78.10;;;;;;5046884;28;20207;-73
2022/03/26 10:14:02;;;;;;;24.65;10.95;;;13.40;77.90;;;;;;5047845;28;20251;-70
2022/03/26 10:16:28;;;;;;;31.48;12.98;;;13.40;76.60;;;;;;5063977;28;20029;-72
2022/03/26 10:18:57;;;;;;;25.52;11.45;;;13.40;77.80;;;;;;5080927;28;20057;-73
2022/03/26 10:21:23;;;;;;;24.90;11.43;;;13.50;76.50;;;;;;5065241;28;20059;-72
2022/03/26 10:23:51;;;;;;;24.80;10.88;;;13.50;76.10;;;;;;5064263;28;20204;-74
2022/03/26 10:26:21;;;;;;;26.85;10.60;;;13.70;76.20;;;;;;5045891;28;20139;-73
2022/03/26 10:28:52;;;;;;;23.88;11.60;;;13.70;75.20;;;;;;5065130;28;20025;-72
2022/03/26 10:34:21;;;;;;;22.38;10.07;;;13.80;75.40;;;;;;5050576;28;20029;-72
2022/03/26 10:36:58;;;;;;;24.77;10.88;;;13.90;74.90;;;;;;5080216;28;20039;-71
2022/03/26 10:39:26;;;;;;;33.92;10.27;;;14.00;75.00;;;;;;5078735;28;20039;-74
2022/03/26 10:41:52;;;;;;;20.27;8.77;;;14.00;73.90;;;;;;5063497;28;20025;-73
2022/03/26 10:44:22;;;;;;;22.05;9.73;;;14.10;74.90;;;;;;5080174;28;20346;-72
2022/03/26 10:46:56;;;;;;;27.15;10.25;;;14.20;74.40;;;;;;5064846;28;20062;-72
2022/03/26 10:49:37;;;;;;;26.15;10.98;;;14.30;73.20;;;;;;5063813;28;20091;-75
2022/03/26 10:52:17;;;;;;;25.98;10.43;;;14.30;74.20;;;;;;5063532;28;20071;-73
2022/03/26 10:54:43;;;;;;;17.67;8.65;;;14.40;73.70;;;;;;5063266;28;20423;-72
2022/03/26 10:57:10;;;;;;;21.95;9.80;;;14.40;72.10;;;;;;5063638;28;20088;-71
2022/03/26 10:59:37;;;;;;;30.70;9.48;;;14.50;73.50;;;;;;5063715;28;20047;-73
2022/03/26 11:02:02;;;;;;;23.02;9.68;;;14.60;72.30;;;;;;5063487;28;20264;-71
2022/03/26 11:04:29;;;;;;;22.83;8.98;;;14.70;73.20;;;;;;5063423;28;20076;-72
2022/03/26 11:06:57;;;;;;;25.35;7.93;;;14.80;72.80;;;;;;5063386;28;20032;-71
2022/03/26 11:09:24;;;;;;;23.17;7.18;;;14.90;71.50;;;;;;5064312;28;20044;-71
2022/03/26 11:11:51;;;;;;;22.05;8.52;;;15.10;72.10;;;;;;5079836;28;20365;-71
2022/03/26 11:14:38;;;;;;;22.63;7.82;;;15.00;72.70;;;;;;5079510;28;20017;-71
2022/03/26 11:17:21;;;;;;;26.50;8.40;;;15.20;73.50;;;;;;5063435;28;20081;-72
2022/03/26 11:20:26;;;;;;;20.83;7.10;;;15.30;73.70;;;;;;5063074;28;20219;-70
2022/03/26 11:23:15;;;;;;;16.67;7.43;;;15.30;73.80;;;;;;5065771;28;20296;-73
2022/03/26 11:26:08;;;;;;;27.92;7.10;;;15.30;73.70;;;;;;5046239;28;20104;-72
2022/03/26 11:28:43;;;;;;;22.67;8.48;;;15.30;74.30;;;;;;5049138;28;20032;-72
2022/03/26 11:31:24;;;;;;;21.17;7.45;;;15.30;73.70;;;;;;5062586;28;20082;-75
2022/03/26 11:34:00;;;;;;;21.27;7.22;;;15.40;74.50;;;;;;5063267;28;20039;-73
2022/03/26 11:36:27;;;;;;;20.98;7.93;;;15.50;74.90;;;;;;5079560;28;20032;-75
2022/03/26 11:38:55;;;;;;;17.02;7.32;;;15.50;75.00;;;;;;5079135;28;20021;-73
2022/03/26 11:41:36;;;;;;;25.52;7.40;;;15.60;75.20;;;;;;5063800;28;20047;-72
2022/03/26 11:44:03;;;;;;;25.60;8.38;;;15.60;75.20;;;;;;5063632;28;20267;-72
2022/03/26 11:52:22;;;;;;;20.60;7.65;;;15.70;75.60;;;;;;5096979;28;19904;-75
2022/03/26 11:54:54;;;;;;;18.60;8.63;;;15.70;75.20;;;;;;5082170;28;20083;-72
2022/03/26 11:57:22;;;;;;;18.77;8.38;;;15.60;74.90;;;;;;5066012;28;20017;-71
2022/03/26 11:59:49;;;;;;;18.70;8.88;;;15.60;75.60;;;;;;5065936;28;20032;-72
2022/03/26 12:02:25;;;;;;;23.25;9.10;;;15.70;75.40;;;;;;5082643;28;20020;-72
2022/03/26 12:04:54;;;;;;;23.40;8.88;;;15.80;75.40;;;;;;5082196;28;20028;-73
2022/03/26 12:07:23;;;;;;;24.75;9.25;;;15.80;75.40;;;;;;5082341;28;20028;-71
2022/03/26 12:10:06;;;;;;;17.20;8.80;;;15.90;76.00;;;;;;5082375;28;20021;-71
2022/03/26 12:12:46;;;;;;;18.20;8.20;;;16.10;75.50;;;;;;5082231;28;20365;-71
2022/03/26 12:15:28;;;;;;;16.85;7.95;;;16.30;74.70;;;;;;5083105;28;20020;-71
2022/03/26 12:18:08;;;;;;;17.40;8.80;;;16.20;74.20;;;;;;5065855;28;20017;-72
2022/03/26 12:20:37;;;;;;;22.75;8.68;;;16.20;73.60;;;;;;5083099;28;20060;-74
2022/03/26 12:23:06;;;;;;;16.63;8.07;;;16.30;74.30;;;;;;5065637;28;20020;-74
2022/03/26 12:25:54;;;;;;;19.00;8.30;;;16.40;72.40;;;;;;5082723;28;20021;-72
2022/03/26 12:28:38;;;;;;;18.80;8.73;;;16.40;72.70;;;;;;5082631;28;20107;-72
2022/03/26 12:31:06;;;;;;;23.17;9.65;;;16.40;73.80;;;;;;5082180;28;20017;-75
2022/03/26 12:33:52;;;;;;;18.38;7.15;;;16.60;73.50;;;;;;5082093;28;20013;-74
2022/03/26 12:36:20;;;;;;;16.33;7.47;;;16.50;70.60;;;;;;5066437;28;20058;-73
2022/03/26 12:38:48;;;;;;;11.57;6.80;;;16.60;72.60;;;;;;5065921;28;20023;-74
2022/03/26 12:41:15;;;;;;;14.25;6.80;;;16.70;70.00;;;;;;5067089;28;20035;-70
2022/03/26 12:43:40;;;;;;;17.20;6.80;;;16.70;70.00;;;;;;5033186;28;20044;-73
2022/03/26 12:46:10;;;;;;;14.98;7.55;;;16.70;70.70;;;;;;5070259;28;20233;-71